sensor_id;sensor_type;location;lat;lon;timestamp;pressure;altitude;pressure_sealevel;temperature;humidity
17311;BME280;8773;43.300;0.394;2022-08-01T00:00:52;99951.84;;;27.09;100.00
17311;BME280;8773;43.300;0.394;2022-08-01T00:03:20;99948.28;;;27.09;100.00
17311;BME280;8773;43.300;0.394;2022-08-01T00:05:48;99941.13;;;27.09;100.00
17311;BME280;8773;43.300;0.394;2022-08-01T00:08:15;99939.41;;;27.08;100.00
17311;BME280;8773;43.300;0.394;2022-08-01T00:10:45;99946.50;;;27.07;100.00
17311;BME280;8773;43.300;0.394;2022-08-01T00:13:13;99946.50;;;27.07;100.00
17311;BME280;8773;43.300;0.394;2022-08-01T00:15:41;99943.88;;;27.04;100.00
17311;BME280;8773;43.300;0.394;2022-08-01T00:18:20;99944.81;;;27.03;100.00
17311;BME280;8773;43.300;0.394;2022-08-01T00:20:48;99934.97;;;27.04;100.00
17311;BME280;8773;43.300;0.394;2022-08-01T00:23:16;99937.66;;;27.04;100.00
17311;BME280;8773;43.300;0.394;2022-08-01T00:25:45;99936.81;;;27.02;100.00
17311;BME280;8773;43.300;0.394;2022-08-01T00:28:13;99933.19;;;27.03;100.00
17311;BME280;8773;43.300;0.394;2022-08-01T00:30:41;99929.63;;;27.04;100.00
17311;BME280;8773;43.300;0.394;2022-08-01T00:33:09;99935.88;;;27.03;100.00
17311;BME280;8773;43.300;0.394;2022-08-01T00:35:37;99931.44;;;27.02;100.00
17311;BME280;8773;43.300;0.394;2022-08-01T00:38:05;99927.91;;;27.01;100.00
17311;BME280;8773;43.300;0.394;2022-08-01T00:40:33;99929.72;;;27.01;100.00
17311;BME280;8773;43.300;0.394;2022-08-01T00:43:02;99930.59;;;27.00;100.00
17311;BME280;8773;43.300;0.394;2022-08-01T00:45:30;99932.44;;;26.98;100.00
17311;BME280;8773;43.300;0.394;2022-08-01T00:47:58;99927.06;;;26.98;100.00
17311;BME280;8773;43.300;0.394;2022-08-01T00:50:26;99937.78;;;26.98;100.00
17311;BME280;8773;43.300;0.394;2022-08-01T00:52:55;99931.63;;;26.96;100.00
17311;BME280;8773;43.300;0.394;2022-08-01T00:55:23;99934.28;;;26.96;100.00
17311;BME280;8773;43.300;0.394;2022-08-01T00:57:51;99930.75;;;26.94;100.00
17311;BME280;8773;43.300;0.394;2022-08-01T01:00:34;99928.97;;;26.93;100.00
17311;BME280;8773;43.300;0.394;2022-08-01T01:03:20;99926.31;;;26.93;100.00
17311;BME280;8773;43.300;0.394;2022-08-01T01:06:15;99919.31;;;26.87;100.00
17311;BME280;8773;43.300;0.394;2022-08-01T01:08:51;99918.41;;;26.88;100.00
17311;BME280;8773;43.300;0.394;2022-08-01T01:11:25;99922.84;;;26.89;100.00
17311;BME280;8773;43.300;0.394;2022-08-01T01:13:57;99922.84;;;26.88;100.00
17311;BME280;8773;43.300;0.394;2022-08-01T01:16:30;99933.53;;;26.89;100.00
17311;BME280;8773;43.300;0.394;2022-08-01T01:19:01;99930.94;;;26.86;100.00
17311;BME280;8773;43.300;0.394;2022-08-01T01:21:39;99930.00;;;26.87;100.00
17311;BME280;8773;43.300;0.394;2022-08-01T01:24:19;99925.53;;;26.88;100.00
17311;BME280;8773;43.300;0.394;2022-08-01T01:26:53;99928.19;;;26.89;100.00
17311;BME280;8773;43.300;0.394;2022-08-01T01:29:28;99921.09;;;26.88;100.00
17311;BME280;8773;43.300;0.394;2022-08-01T01:32:23;99924.66;;;26.87;100.00
17311;BME280;8773;43.300;0.394;2022-08-01T01:34:57;99920.13;;;26.91;100.00
17311;BME280;8773;43.300;0.394;2022-08-01T01:37:27;99921.03;;;26.90;100.00
17311;BME280;8773;43.300;0.394;2022-08-01T01:39:57;99921.00;;;26.91;100.00
17311;BME280;8773;43.300;0.394;2022-08-01T01:42:26;99907.72;;;26.88;100.00
17311;BME280;8773;43.300;0.394;2022-08-01T01:44:56;99915.69;;;26.90;100.00
17311;BME280;8773;43.300;0.394;2022-08-01T01:47:26;99917.41;;;26.92;100.00
17311;BME280;8773;43.300;0.394;2022-08-01T01:49:57;99917.47;;;26.89;100.00
17311;BME280;8773;43.300;0.394;2022-08-01T01:52:26;99904.13;;;26.88;100.00
17311;BME280;8773;43.300;0.394;2022-08-01T01:54:55;99909.47;;;26.88;100.00
17311;BME280;8773;43.300;0.394;2022-08-01T01:57:25;99904.22;;;26.84;100.00
17311;BME280;8773;43.300;0.394;2022-08-01T01:59:55;99901.50;;;26.86;100.00
17311;BME280;8773;43.300;0.394;2022-08-01T02:02:25;99906.91;;;26.83;100.00
17311;BME280;8773;43.300;0.394;2022-08-01T02:04:55;99908.69;;;26.84;100.00
17311;BME280;8773;43.300;0.394;2022-08-01T02:07:25;99909.56;;;26.84;100.00
17311;BME280;8773;43.300;0.394;2022-08-01T02:09:54;99906.03;;;26.82;100.00
17311;BME280;8773;43.300;0.394;2022-08-01T02:12:24;99909.56;;;26.83;100.00
17311;BME280;8773;43.300;0.394;2022-08-01T02:14:52;99896.25;;;26.81;100.00
17311;BME280;8773;43.300;0.394;2022-08-01T02:17:24;99901.69;;;26.78;100.00
17311;BME280;8773;43.300;0.394;2022-08-01T02:19:53;99898.09;;;26.79;100.00
17311;BME280;8773;43.300;0.394;2022-08-01T02:22:27;99891.00;;;26.77;100.00
17311;BME280;8773;43.300;0.394;2022-08-01T02:25:05;99896.38;;;26.75;100.00
17311;BME280;8773;43.300;0.394;2022-08-01T02:27:37;99889.19;;;26.77;100.00
17311;BME280;8773;43.300;0.394;2022-08-01T02:30:08;99895.47;;;26.76;100.00
17311;BME280;8773;43.300;0.394;2022-08-01T02:32:42;99891.09;;;26.74;100.00
17311;BME280;8773;43.300;0.394;2022-08-01T02:35:13;99897.28;;;26.76;100.00
17311;BME280;8773;43.300;0.394;2022-08-01T02:37:47;99899.06;;;26.75;100.00
17311;BME280;8773;43.300;0.394;2022-08-01T02:40:17;99899.97;;;26.74;100.00
17311;BME280;8773;43.300;0.394;2022-08-01T02:42:50;99900.94;;;26.72;100.00
17311;BME280;8773;43.300;0.394;2022-08-01T02:45:22;99900.91;;;26.73;100.00
17311;BME280;8773;43.300;0.394;2022-08-01T02:47:57;99899.13;;;26.72;100.00
17311;BME280;8773;43.300;0.394;2022-08-01T02:50:28;99900.00;;;26.73;100.00
17311;BME280;8773;43.300;0.394;2022-08-01T02:52:58;99899.13;;;26.72;100.00
17311;BME280;8773;43.300;0.394;2022-08-01T02:55:30;99893.84;;;26.71;100.00
17311;BME280;8773;43.300;0.394;2022-08-01T02:58:00;99894.72;;;26.71;100.00
17311;BME280;8773;43.300;0.394;2022-08-01T03:00:30;99896.53;;;26.69;100.00
17311;BME280;8773;43.300;0.394;2022-08-01T03:03:01;99888.50;;;26.69;100.00
17311;BME280;8773;43.300;0.394;2022-08-01T03:05:31;99893.84;;;26.69;100.00
17311;BME280;8773;43.300;0.394;2022-08-01T03:08:00;99896.53;;;26.69;100.00
17311;BME280;8773;43.300;0.394;2022-08-01T03:10:30;99896.53;;;26.69;100.00
17311;BME280;8773;43.300;0.394;2022-08-01T03:13:00;99895.69;;;26.67;100.00
17311;BME280;8773;43.300;0.394;2022-08-01T03:15:30;99893.00;;;26.69;100.00
17311;BME280;8773;43.300;0.394;2022-08-01T03:18:00;99893.88;;;26.68;100.00
17311;BME280;8773;43.300;0.394;2022-08-01T03:20:32;99891.22;;;26.68;100.00
17311;BME280;8773;43.300;0.394;2022-08-01T03:23:04;99896.56;;;26.68;100.00
17311;BME280;8773;43.300;0.394;2022-08-01T03:25:35;99890.34;;;26.67;100.00
17311;BME280;8773;43.300;0.394;2022-08-01T03:28:06;99884.97;;;26.67;100.00
17311;BME280;8773;43.300;0.394;2022-08-01T03:30:36;99893.88;;;26.68;100.00
17311;BME280;8773;43.300;0.394;2022-08-01T03:33:07;99884.13;;;26.67;100.00
17311;BME280;8773;43.300;0.394;2022-08-01T03:35:44;99884.19;;;26.63;100.00
17311;BME280;8773;43.300;0.394;2022-08-01T03:38:18;99888.63;;;26.63;100.00
17311;BME280;8773;43.300;0.394;2022-08-01T03:40:51;99885.09;;;26.62;100.00
17311;BME280;8773;43.300;0.394;2022-08-01T03:43:25;99880.66;;;26.61;100.00
17311;BME280;8773;43.300;0.394;2022-08-01T03:45:55;99882.41;;;26.62;100.00
17311;BME280;8773;43.300;0.394;2022-08-01T03:48:29;99883.34;;;26.61;100.00
17311;BME280;8773;43.300;0.394;2022-08-01T03:51:01;99878.84;;;26.62;100.00
17311;BME280;8773;43.300;0.394;2022-08-01T03:53:32;99882.41;;;26.62;100.00
17311;BME280;8773;43.300;0.394;2022-08-01T03:56:07;99874.44;;;26.61;100.00
17311;BME280;8773;43.300;0.394;2022-08-01T03:58:38;99877.13;;;26.61;100.00
17311;BME280;8773;43.300;0.394;2022-08-01T04:01:07;99873.50;;;26.62;100.00
17311;BME280;8773;43.300;0.394;2022-08-01T04:03:43;99875.34;;;26.60;100.00
17311;BME280;8773;43.300;0.394;2022-08-01T04:06:12;99878.94;;;26.59;100.00
17311;BME280;8773;43.300;0.394;2022-08-01T04:08:43;99875.41;;;26.57;100.00
17311;BME280;8773;43.300;0.394;2022-08-01T04:11:23;99884.28;;;26.59;100.00
17311;BME280;8773;43.300;0.394;2022-08-01T04:13:52;99887.84;;;26.58;100.00
17311;BME280;8773;43.300;0.394;2022-08-01T04:16:21;99890.59;;;26.56;100.00
17311;BME280;8773;43.300;0.394;2022-08-01T04:18:50;99896.84;;;26.55;100.00
17311;BME280;8773;43.300;0.394;2022-08-01T04:21:22;99895.97;;;26.55;100.00
17311;BME280;8773;43.300;0.394;2022-08-01T04:23:52;99901.25;;;26.58;100.00
17311;BME280;8773;43.300;0.394;2022-08-01T04:26:21;99894.13;;;26.57;100.00
17311;BME280;8773;43.300;0.394;2022-08-01T04:28:50;99900.41;;;26.56;100.00
17311;BME280;8773;43.300;0.394;2022-08-01T04:31:22;99898.69;;;26.53;100.00
17311;BME280;8773;43.300;0.394;2022-08-01T04:33:54;99901.31;;;26.55;100.00
17311;BME280;8773;43.300;0.394;2022-08-01T04:36:24;99900.47;;;26.53;100.00
17311;BME280;8773;43.300;0.394;2022-08-01T04:38:56;99897.78;;;26.53;100.00
17311;BME280;8773;43.300;0.394;2022-08-01T04:41:26;99903.13;;;26.53;100.00
17311;BME280;8773;43.300;0.394;2022-08-01T04:43:54;99900.47;;;26.53;100.00
17311;BME280;8773;43.300;0.394;2022-08-01T04:46:26;99898.72;;;26.52;100.00
17311;BME280;8773;43.300;0.394;2022-08-01T04:48:56;99901.38;;;26.52;100.00
17311;BME280;8773;43.300;0.394;2022-08-01T04:51:25;99895.16;;;26.51;100.00
17311;BME280;8773;43.300;0.394;2022-08-01T04:53:53;99903.22;;;26.50;100.00
17311;BME280;8773;43.300;0.394;2022-08-01T04:56:21;99899.66;;;26.49;100.00
17311;BME280;8773;43.300;0.394;2022-08-01T04:58:49;99898.81;;;26.47;100.00
17311;BME280;8773;43.300;0.394;2022-08-01T05:01:48;99904.13;;;26.49;100.00
17311;BME280;8773;43.300;0.394;2022-08-01T05:04:18;99903.22;;;26.50;100.00
17311;BME280;8773;43.300;0.394;2022-08-01T05:06:46;99911.28;;;26.48;100.00
17311;BME280;8773;43.300;0.394;2022-08-01T05:09:14;99904.16;;;26.47;100.00
17311;BME280;8773;43.300;0.394;2022-08-01T05:11:42;99903.25;;;26.48;100.00
17311;BME280;8773;43.300;0.394;2022-08-01T05:14:10;99904.16;;;26.47;100.00
17311;BME280;8773;43.300;0.394;2022-08-01T05:16:38;99906.84;;;26.47;100.00
17311;BME280;8773;43.300;0.394;2022-08-01T05:19:06;99919.34;;;26.47;100.00
17311;BME280;8773;43.300;0.394;2022-08-01T05:21:36;99914.84;;;26.47;100.00
17311;BME280;8773;43.300;0.394;2022-08-01T05:24:05;99923.81;;;26.46;100.00
17311;BME280;8773;43.300;0.394;2022-08-01T05:26:34;99914.03;;;26.43;100.00
17311;BME280;8773;43.300;0.394;2022-08-01T05:29:02;99914.91;;;26.44;100.00
17311;BME280;8773;43.300;0.394;2022-08-01T05:31:30;99921.13;;;26.44;100.00
17311;BME280;8773;43.300;0.394;2022-08-01T05:34:00;99924.72;;;26.43;100.00
17311;BME280;8773;43.300;0.394;2022-08-01T05:36:28;99928.28;;;26.42;100.00
17311;BME280;8773;43.300;0.394;2022-08-01T05:38:58;99927.41;;;26.43;100.00
17311;BME280;8773;43.300;0.394;2022-08-01T05:41:26;99927.41;;;26.42;100.00
17311;BME280;8773;43.300;0.394;2022-08-01T05:43:54;99922.94;;;26.42;100.00
17311;BME280;8773;43.300;0.394;2022-08-01T05:46:22;99932.78;;;26.42;100.00
17311;BME280;8773;43.300;0.394;2022-08-01T05:48:53;99925.66;;;26.41;100.00
17311;BME280;8773;43.300;0.394;2022-08-01T05:51:21;99917.66;;;26.39;100.00
17311;BME280;8773;43.300;0.394;2022-08-01T05:53:49;99922.16;;;26.39;100.00
17311;BME280;8773;43.300;0.394;2022-08-01T05:56:19;99919.50;;;26.37;100.00
17311;BME280;8773;43.300;0.394;2022-08-01T05:58:47;99922.09;;;26.40;100.00
17311;BME280;8773;43.300;0.394;2022-08-01T06:01:16;99923.88;;;26.40;100.00
17311;BME280;8773;43.300;0.394;2022-08-01T06:03:44;99923.03;;;26.39;100.00
17311;BME280;8773;43.300;0.394;2022-08-01T06:06:12;99925.72;;;26.38;100.00
17311;BME280;8773;43.300;0.394;2022-08-01T06:08:41;99917.69;;;26.38;100.00
17311;BME280;8773;43.300;0.394;2022-08-01T06:11:09;99919.50;;;26.37;100.00
17311;BME280;8773;43.300;0.394;2022-08-01T06:13:40;99917.69;;;26.38;100.00
17311;BME280;8773;43.300;0.394;2022-08-01T06:16:14;99919.50;;;26.37;100.00
17311;BME280;8773;43.300;0.394;2022-08-01T06:18:42;99921.31;;;26.35;100.00
17311;BME280;8773;43.300;0.394;2022-08-01T06:21:10;99923.97;;;26.35;100.00
17311;BME280;8773;43.300;0.394;2022-08-01T06:23:37;99927.59;;;26.34;100.00
17311;BME280;8773;43.300;0.394;2022-08-01T06:26:08;99917.81;;;26.33;100.00
17311;BME280;8773;43.300;0.394;2022-08-01T06:28:36;99925.78;;;26.35;100.00
17311;BME280;8773;43.300;0.394;2022-08-01T06:31:06;99922.25;;;26.33;100.00
17311;BME280;8773;43.300;0.394;2022-08-01T06:33:34;99925.84;;;26.33;100.00
17311;BME280;8773;43.300;0.394;2022-08-01T06:36:02;99924.03;;;26.34;100.00
17311;BME280;8773;43.300;0.394;2022-08-01T06:38:30;99924.03;;;26.34;100.00
17311;BME280;8773;43.300;0.394;2022-08-01T06:40:58;99917.81;;;26.33;100.00
17311;BME280;8773;43.300;0.394;2022-08-01T06:43:26;99927.59;;;26.33;100.00
17311;BME280;8773;43.300;0.394;2022-08-01T06:46:03;99924.06;;;26.32;100.00
17311;BME280;8773;43.300;0.394;2022-08-01T06:48:33;99926.78;;;26.31;100.00
17311;BME280;8773;43.300;0.394;2022-08-01T06:51:02;99922.25;;;26.33;100.00
17311;BME280;8773;43.300;0.394;2022-08-01T06:53:36;99926.81;;;26.29;100.00
17311;BME280;8773;43.300;0.394;2022-08-01T06:56:05;99923.19;;;26.30;100.00
17311;BME280;8773;43.300;0.394;2022-08-01T06:58:35;99926.81;;;26.28;100.00
17311;BME280;8773;43.300;0.394;2022-08-01T07:01:03;99935.69;;;26.30;100.00
17311;BME280;8773;43.300;0.394;2022-08-01T07:03:35;99940.19;;;26.28;100.00
17311;BME280;8773;43.300;0.394;2022-08-01T07:06:21;99939.31;;;26.27;100.00
17311;BME280;8773;43.300;0.394;2022-08-01T07:08:49;99940.19;;;26.29;100.00
17311;BME280;8773;43.300;0.394;2022-08-01T07:11:18;99940.19;;;26.28;100.00
17311;BME280;8773;43.300;0.394;2022-08-01T07:13:47;99936.66;;;26.27;100.00
17311;BME280;8773;43.300;0.394;2022-08-01T07:16:16;99934.91;;;26.26;100.00
17311;BME280;8773;43.300;0.394;2022-08-01T07:18:45;99942.91;;;26.26;100.00
17311;BME280;8773;43.300;0.394;2022-08-01T07:21:13;99942.03;;;26.26;100.00
17311;BME280;8773;43.300;0.394;2022-08-01T07:24:01;99938.50;;;26.24;100.00
17311;BME280;8773;43.300;0.394;2022-08-01T07:26:39;99946.47;;;26.25;100.00
17311;BME280;8773;43.300;0.394;2022-08-01T07:29:21;99943.81;;;26.25;100.00
17311;BME280;8773;43.300;0.394;2022-08-01T07:31:49;99940.25;;;26.25;100.00
17311;BME280;8773;43.300;0.394;2022-08-01T07:34:18;99937.59;;;26.25;100.00
17311;BME280;8773;43.300;0.394;2022-08-01T07:36:46;99930.50;;;26.22;100.00
17311;BME280;8773;43.300;0.394;2022-08-01T07:39:14;99934.06;;;26.22;100.00
17311;BME280;8773;43.300;0.394;2022-08-01T07:41:42;99927.81;;;26.24;100.00
17311;BME280;8773;43.300;0.394;2022-08-01T07:44:30;99932.28;;;26.23;100.00
17311;BME280;8773;43.300;0.394;2022-08-01T07:46:58;99930.50;;;26.24;100.00
17311;BME280;8773;43.300;0.394;2022-08-01T07:49:28;99931.38;;;26.22;100.00
17311;BME280;8773;43.300;0.394;2022-08-01T07:52:00;99932.31;;;26.21;100.00
17311;BME280;8773;43.300;0.394;2022-08-01T07:54:30;99919.81;;;26.22;100.00
17311;BME280;8773;43.300;0.394;2022-08-01T07:57:00;99917.16;;;26.22;100.00
17311;BME280;8773;43.300;0.394;2022-08-01T07:59:28;99923.44;;;26.19;100.00
17311;BME280;8773;43.300;0.394;2022-08-01T08:01:56;99927.84;;;26.20;100.00
17311;BME280;8773;43.300;0.394;2022-08-01T08:04:25;99924.31;;;26.20;100.00
17311;BME280;8773;43.300;0.394;2022-08-01T08:06:54;99914.53;;;26.19;100.00
17311;BME280;8773;43.300;0.394;2022-08-01T08:09:22;99920.75;;;26.19;100.00
17311;BME280;8773;43.300;0.394;2022-08-01T08:11:50;99918.09;;;26.18;100.00
17311;BME280;8773;43.300;0.394;2022-08-01T08:14:19;99913.66;;;26.18;100.00
17311;BME280;8773;43.300;0.394;2022-08-01T08:16:58;99916.34;;;26.18;100.00
17311;BME280;8773;43.300;0.394;2022-08-01T08:19:28;99917.22;;;26.19;100.00
17311;BME280;8773;43.300;0.394;2022-08-01T08:22:05;99903.84;;;26.19;100.00
17311;BME280;8773;43.300;0.394;2022-08-01T08:24:35;99902.03;;;26.19;100.00
17311;BME280;8773;43.300;0.394;2022-08-01T08:27:13;99903.00;;;26.17;100.00
17311;BME280;8773;43.300;0.394;2022-08-01T08:29:41;99903.84;;;26.19;100.00
17311;BME280;8773;43.300;0.394;2022-08-01T08:32:10;99895.84;;;26.17;100.00
17311;BME280;8773;43.300;0.394;2022-08-01T08:34:38;99894.97;;;26.17;100.00
17311;BME280;8773;43.300;0.394;2022-08-01T08:37:08;99894.09;;;26.16;100.00
17311;BME280;8773;43.300;0.394;2022-08-01T08:39:36;99891.38;;;26.18;100.00
17311;BME280;8773;43.300;0.394;2022-08-01T08:42:08;99894.97;;;26.17;100.00
17311;BME280;8773;43.300;0.394;2022-08-01T08:44:36;99898.56;;;26.16;100.00
17311;BME280;8773;43.300;0.394;2022-08-01T08:47:11;99895.91;;;26.16;100.00
17311;BME280;8773;43.300;0.394;2022-08-01T08:49:46;99886.94;;;26.17;100.00
17311;BME280;8773;43.300;0.394;2022-08-01T08:52:17;99887.88;;;26.16;100.00
17311;BME280;8773;43.300;0.394;2022-08-01T08:54:47;99886.97;;;26.15;100.00
17311;BME280;8773;43.300;0.394;2022-08-01T08:57:15;99883.41;;;26.16;100.00
17311;BME280;8773;43.300;0.394;2022-08-01T08:59:44;99886.06;;;26.16;100.00
17311;BME280;8773;43.300;0.394;2022-08-01T09:02:13;99885.19;;;26.16;100.00
17311;BME280;8773;43.300;0.394;2022-08-01T09:04:41;99883.41;;;26.16;100.00
17311;BME280;8773;43.300;0.394;2022-08-01T09:07:09;99878.13;;;26.13;100.00
17311;BME280;8773;43.300;0.394;2022-08-01T09:09:39;99880.75;;;26.15;100.00
17311;BME280;8773;43.300;0.394;2022-08-01T09:12:08;99881.66;;;26.14;100.00
17311;BME280;8773;43.300;0.394;2022-08-01T09:14:44;99887.03;;;26.12;100.00
17311;BME280;8773;43.300;0.394;2022-08-01T09:17:13;99890.56;;;26.16;100.00
17311;BME280;8773;43.300;0.394;2022-08-01T09:19:44;99884.34;;;26.14;100.00
17311;BME280;8773;43.300;0.394;2022-08-01T09:22:16;99890.56;;;26.14;100.00
17311;BME280;8773;43.300;0.394;2022-08-01T09:24:59;99891.50;;;26.12;100.00
17311;BME280;8773;43.300;0.394;2022-08-01T09:27:28;99885.22;;;26.14;100.00
17311;BME280;8773;43.300;0.394;2022-08-01T09:30:08;99882.56;;;26.13;100.00
17311;BME280;8773;43.300;0.394;2022-08-01T09:32:52;99884.38;;;26.12;100.00
17311;BME280;8773;43.300;0.394;2022-08-01T09:35:25;99885.25;;;26.13;100.00
17311;BME280;8773;43.300;0.394;2022-08-01T09:38:12;99883.50;;;26.12;100.00
17311;BME280;8773;43.300;0.394;2022-08-01T09:40:47;99872.81;;;26.12;100.00
17311;BME280;8773;43.300;0.394;2022-08-01T09:43:16;99876.31;;;26.14;100.00
17311;BME280;8773;43.300;0.394;2022-08-01T09:45:44;99869.19;;;26.14;100.00
17311;BME280;8773;43.300;0.394;2022-08-01T09:48:18;99870.13;;;26.12;100.00
17311;BME280;8773;43.300;0.394;2022-08-01T09:50:54;99867.38;;;26.15;100.00
17311;BME280;8773;43.300;0.394;2022-08-01T09:53:40;99871.00;;;26.12;100.00
17311;BME280;8773;43.300;0.394;2022-08-01T09:56:20;99868.31;;;26.14;100.00
17311;BME280;8773;43.300;0.394;2022-08-01T09:58:50;99876.28;;;26.15;100.00
17311;BME280;8773;43.300;0.394;2022-08-01T10:01:25;99872.78;;;26.13;100.00
17311;BME280;8773;43.300;0.394;2022-08-01T10:04:08;99867.44;;;26.12;100.00
17311;BME280;8773;43.300;0.394;2022-08-01T10:06:37;99879.88;;;26.14;100.00
17311;BME280;8773;43.300;0.394;2022-08-01T10:09:07;99872.72;;;26.15;100.00
17311;BME280;8773;43.300;0.394;2022-08-01T10:11:37;99880.75;;;26.15;100.00
17311;BME280;8773;43.300;0.394;2022-08-01T10:14:07;99877.19;;;26.16;100.00
17311;BME280;8773;43.300;0.394;2022-08-01T10:16:36;99874.53;;;26.14;100.00
17311;BME280;8773;43.300;0.394;2022-08-01T10:19:06;99869.16;;;26.16;100.00
17311;BME280;8773;43.300;0.394;2022-08-01T10:21:41;99870.06;;;26.15;100.00
17311;BME280;8773;43.300;0.394;2022-08-01T10:24:23;99869.19;;;26.14;100.00
17311;BME280;8773;43.300;0.394;2022-08-01T10:26:56;99867.44;;;26.13;100.00
17311;BME280;8773;43.300;0.394;2022-08-01T10:29:35;99860.28;;;26.14;100.00
17311;BME280;8773;43.300;0.394;2022-08-01T10:32:24;99859.34;;;26.15;100.00
17311;BME280;8773;43.300;0.394;2022-08-01T10:34:54;99850.44;;;26.16;100.00
17311;BME280;8773;43.300;0.394;2022-08-01T10:37:24;99849.53;;;26.17;100.00
17311;BME280;8773;43.300;0.394;2022-08-01T10:39:53;99852.19;;;26.17;100.00
17311;BME280;8773;43.300;0.394;2022-08-01T10:42:44;99862.00;;;26.16;100.00
17311;BME280;8773;43.300;0.394;2022-08-01T10:45:15;99854.88;;;26.17;100.00
17311;BME280;8773;43.300;0.394;2022-08-01T10:47:48;99852.22;;;26.15;100.00
17311;BME280;8773;43.300;0.394;2022-08-01T10:50:23;99845.97;;;26.16;100.00
17311;BME280;8773;43.300;0.394;2022-08-01T10:53:09;99844.25;;;26.14;100.00
17311;BME280;8773;43.300;0.394;2022-08-01T10:55:58;99851.34;;;26.15;100.00
17311;BME280;8773;43.300;0.394;2022-08-01T10:58:31;99847.72;;;26.17;100.00
17311;BME280;8773;43.300;0.394;2022-08-01T11:01:23;99846.06;;;26.12;100.00
17311;BME280;8773;43.300;0.394;2022-08-01T11:04:02;99846.00;;;26.15;100.00
17311;BME280;8773;43.300;0.394;2022-08-01T11:06:51;99850.47;;;26.13;100.00
17311;BME280;8773;43.300;0.394;2022-08-01T11:09:39;99857.63;;;26.14;100.00
17311;BME280;8773;43.300;0.394;2022-08-01T11:12:09;99849.50;;;26.18;100.00
17311;BME280;8773;43.300;0.394;2022-08-01T11:15:25;99847.78;;;26.14;100.00
17311;BME280;8773;43.300;0.394;2022-08-01T11:17:59;99851.31;;;26.16;100.00
17311;BME280;8773;43.300;0.394;2022-08-01T11:20:29;99846.84;;;26.17;100.00
17311;BME280;8773;43.300;0.394;2022-08-01T11:23:25;99838.91;;;26.14;100.00
17311;BME280;8773;43.300;0.394;2022-08-01T11:26:20;99837.09;;;26.14;100.00
17311;BME280;8773;43.300;0.394;2022-08-01T11:29:19;99835.28;;;26.15;100.00
17311;BME280;8773;43.300;0.394;2022-08-01T11:31:50;99833.41;;;26.20;100.00
17311;BME280;8773;43.300;0.394;2022-08-01T11:34:19;99833.41;;;26.20;100.00
17311;BME280;8773;43.300;0.394;2022-08-01T11:36:48;99818.22;;;26.20;100.00
17311;BME280;8773;43.300;0.394;2022-08-01T11:39:25;99821.81;;;26.21;100.00
17311;BME280;8773;43.300;0.394;2022-08-01T11:44:48;99818.22;;;26.20;100.00
17311;BME280;8773;43.300;0.394;2022-08-01T11:47:18;99815.53;;;26.22;100.00
17311;BME280;8773;43.300;0.394;2022-08-01T11:50:06;99816.41;;;26.22;100.00
17311;BME280;8773;43.300;0.394;2022-08-01T11:52:57;99814.66;;;26.23;100.00
17311;BME280;8773;43.300;0.394;2022-08-01T11:55:27;99810.13;;;26.25;100.00
17311;BME280;8773;43.300;0.394;2022-08-01T11:58:02;99806.56;;;26.25;100.00
17311;BME280;8773;43.300;0.394;2022-08-01T12:00:30;99810.13;;;26.25;100.00
17311;BME280;8773;43.300;0.394;2022-08-01T12:03:01;99811.03;;;26.26;100.00
17311;BME280;8773;43.300;0.394;2022-08-01T12:05:31;99808.34;;;26.26;100.00
17311;BME280;8773;43.300;0.394;2022-08-01T12:08:01;99801.19;;;26.26;100.00
17311;BME280;8773;43.300;0.394;2022-08-01T12:10:32;99803.81;;;26.28;100.00
17311;BME280;8773;43.300;0.394;2022-08-01T12:13:15;99813.63;;;26.27;100.00
17311;BME280;8773;43.300;0.394;2022-08-01T12:15:46;99803.78;;;26.29;100.00
17311;BME280;8773;43.300;0.394;2022-08-01T12:18:23;99799.31;;;26.30;100.00
17311;BME280;8773;43.300;0.394;2022-08-01T12:20:52;99803.78;;;26.29;100.00
17311;BME280;8773;43.300;0.394;2022-08-01T12:23:29;99790.41;;;26.31;100.00
17311;BME280;8773;43.300;0.394;2022-08-01T12:25:57;99786.81;;;26.30;100.00
17311;BME280;8773;43.300;0.394;2022-08-01T12:28:26;99785.06;;;26.31;100.00
17311;BME280;8773;43.300;0.394;2022-08-01T12:30:55;99779.69;;;26.31;100.00
17311;BME280;8773;43.300;0.394;2022-08-01T12:33:24;99784.09;;;26.33;100.00
17311;BME280;8773;43.300;0.394;2022-08-01T12:35:52;99771.63;;;26.32;100.00
17311;BME280;8773;43.300;0.394;2022-08-01T12:38:21;99778.75;;;26.33;100.00
17311;BME280;8773;43.300;0.394;2022-08-01T12:40:51;99769.78;;;26.34;100.00
17311;BME280;8773;43.300;0.394;2022-08-01T12:43:22;99767.16;;;26.33;100.00
17311;BME280;8773;43.300;0.394;2022-08-01T12:45:55;99761.78;;;26.34;100.00
17311;BME280;8773;43.300;0.394;2022-08-01T12:48:27;99759.97;;;26.35;100.00
17311;BME280;8773;43.300;0.394;2022-08-01T12:50:59;99766.19;;;26.35;100.00
17311;BME280;8773;43.300;0.394;2022-08-01T12:53:33;99759.09;;;26.34;100.00
17311;BME280;8773;43.300;0.394;2022-08-01T12:56:07;99757.31;;;26.35;100.00
17311;BME280;8773;43.300;0.394;2022-08-01T12:58:37;99748.31;;;26.37;100.00
17311;BME280;8773;43.300;0.394;2022-08-01T13:01:07;99745.66;;;26.37;100.00
17311;BME280;8773;43.300;0.394;2022-08-01T13:03:37;99746.53;;;26.38;100.00
17311;BME280;8773;43.300;0.394;2022-08-01T13:06:11;99746.53;;;26.38;100.00
17311;BME280;8773;43.300;0.394;2022-08-01T13:08:42;99747.38;;;26.40;100.00
17311;BME280;8773;43.300;0.394;2022-08-01T13:11:11;99748.25;;;26.40;100.00
17311;BME280;8773;43.300;0.394;2022-08-01T13:13:44;99743.78;;;26.41;100.00
17311;BME280;8773;43.300;0.394;2022-08-01T13:16:14;99751.84;;;26.39;100.00
17311;BME280;8773;43.300;0.394;2022-08-01T13:19:05;99738.44;;;26.41;100.00
17311;BME280;8773;43.300;0.394;2022-08-01T13:21:33;99733.09;;;26.41;100.00
17311;BME280;8773;43.300;0.394;2022-08-01T13:24:24;99741.06;;;26.42;100.00
17311;BME280;8773;43.300;0.394;2022-08-01T13:26:55;99734.81;;;26.43;100.00
17311;BME280;8773;43.300;0.394;2022-08-01T13:29:33;99731.25;;;26.43;100.00